Time;durP1;ratioP1;P1;durP2;ratioP2;P2;SDS_P1;SDS_P2;PMS_P1;PMS_P2;Temp;Humidity;BMP_temperature;BMP_pressure;BME280_temperature;BME280_humidity;BME280_pressure;Samples;Min_cycle;Max_cycle;Signal;HPM_P1;HPM_P2
2022/11/16 00:01:34;;;;;;;12.90;10.77;;;;;;;12.37;98.66;96874.44;5088928;23;20674;-91
2022/11/16 00:03:37;;;;;;;11.50;10.10;;;;;;;12.35;98.33;96867.69;5113768;23;20648;-90
2022/11/16 00:05:40;;;;;;;17.90;10.00;;;;;;;12.34;98.30;96872.13;5139832;23;20566;-91
2022/11/16 00:07:45;;;;;;;13.60;10.17;;;;;;;12.35;97.73;96872.94;5115963;23;20582;-89
2022/11/16 00:09:48;;;;;;;111.97;69.47;;;;;;;12.35;98.20;96867.69;5088997;23;20580;-89
2022/11/16 00:11:52;;;;;;;35.57;24.60;;;;;;;12.35;98.58;96873.75;5088767;23;20630;-89
2022/11/16 00:13:55;;;;;;;47.40;30.70;;;;;;;12.35;97.51;96867.69;5113251;23;20614;-89
2022/11/16 00:15:58;;;;;;;25.40;15.40;;;;;;;12.34;98.24;96868.66;5113337;23;20638;-89
2022/11/16 00:18:01;;;;;;;40.90;27.87;;;;;;;12.33;97.57;96870.47;5116374;23;20628;-89
2022/11/16 00:20:04;;;;;;;26.40;18.70;;;;;;;12.33;98.08;96869.66;5091361;23;20576;-89
2022/11/16 00:22:08;;;;;;;16.23;13.57;;;;;;;12.32;98.89;96858.34;5114733;23;20628;-89
2022/11/16 00:24:13;;;;;;;13.47;11.37;;;;;;;12.33;98.11;96864.41;5089935;23;21109;-89
2022/11/16 00:26:16;;;;;;;14.73;11.50;;;;;;;12.33;99.66;96869.66;5114835;23;21190;-89
2022/11/16 00:28:19;;;;;;;12.00;10.40;;;;;;;12.32;99.55;96868.00;5115182;23;21118;-89
2022/11/16 00:30:22;;;;;;;11.10;9.83;;;;;;;12.32;99.27;96868.00;5089899;23;20592;-89
2022/11/16 00:32:26;;;;;;;12.10;10.80;;;;;;;12.30;98.25;96868.13;5115075;23;20620;-89
2022/11/16 00:34:29;;;;;;;12.57;11.27;;;;;;;12.28;98.96;96867.47;5089015;23;20595;-89
2022/11/16 00:36:32;;;;;;;15.37;11.07;;;;;;;12.27;99.18;96873.66;5089319;23;20575;-89
2022/11/16 00:38:35;;;;;;;12.60;10.87;;;;;;;12.27;100.00;96870.22;5089876;23;21119;-89
2022/11/16 00:40:41;;;;;;;14.43;10.37;;;;;;;12.25;98.93;96872.13;5116256;23;20582;-88
2022/11/16 00:42:44;;;;;;;14.33;10.33;;;;;;;12.23;100.00;96881.13;5090134;23;20572;-89
2022/11/16 00:44:47;;;;;;;16.73;10.60;;;;;;;12.22;98.89;96880.28;5114274;23;20587;-88
2022/11/16 00:46:50;;;;;;;13.23;10.27;;;;;;;12.21;99.12;96883.03;5089281;23;20662;-88
2022/11/16 00:48:54;;;;;;;14.20;11.07;;;;;;;12.20;100.00;96879.59;5115070;23;20587;-89
2022/11/16 00:50:57;;;;;;;13.27;11.30;;;;;;;12.20;100.00;96884.81;5089571;23;20586;-89
2022/11/16 00:53:00;;;;;;;14.50;12.03;;;;;;;12.20;100.00;96892.66;5089864;23;20601;-88
2022/11/16 00:55:04;;;;;;;12.77;11.47;;;;;;;12.19;100.00;96895.44;5089143;23;20572;-88
2022/11/16 00:57:09;;;;;;;18.90;12.30;;;;;;;12.18;100.00;96892.00;5089596;23;20623;-88
2022/11/16 00:59:12;;;;;;;15.43;11.30;;;;;;;12.17;100.00;96890.34;5089858;23;20582;-89
2022/11/16 01:01:18;;;;;;;15.80;12.40;;;;;;;12.15;100.00;96889.69;5113858;23;20638;-88
2022/11/16 01:03:21;;;;;;;13.30;11.90;;;;;;;12.17;100.00;96900.00;5140490;23;20696;-88
2022/11/16 01:05:24;;;;;;;13.53;11.80;;;;;;;12.15;100.00;96896.66;5115199;23;20582;-88
2022/11/16 01:07:27;;;;;;;15.50;12.07;;;;;;;12.14;100.00;96893.25;5115589;23;20579;-88
2022/11/16 01:09:30;;;;;;;13.63;11.30;;;;;;;12.15;100.00;96886.22;5091230;23;21143;-89
2022/11/16 01:13:55;;;;;;;12.23;10.60;;;;;;;12.16;100.00;96886.06;5090160;23;20623;-89
2022/11/16 01:15:58;;;;;;;12.60;11.00;;;;;;;12.15;100.00;96887.06;5090428;23;20580;-89
2022/11/16 01:18:01;;;;;;;11.97;10.77;;;;;;;12.14;100.00;96887.19;5090076;23;20626;-89
2022/11/16 01:20:07;;;;;;;15.13;11.30;;;;;;;12.11;99.76;96875.22;5089855;23;20615;-89
2022/11/16 01:22:10;;;;;;;14.50;11.03;;;;;;;12.06;100.00;96872.25;5115625;23;20548;-88
2022/11/16 01:24:13;;;;;;;13.17;10.30;;;;;;;12.03;100.00;96877.75;5114402;23;20610;-89
2022/11/16 01:26:16;;;;;;;13.23;10.80;;;;;;;12.01;100.00;96871.84;5114282;23;21125;-88
2022/11/16 01:28:19;;;;;;;12.00;9.47;;;;;;;12.00;100.00;96870.19;5089649;23;20573;-89
2022/11/16 01:30:27;;;;;;;9.77;8.73;;;;;;;12.00;100.00;96851.91;5089718;23;20951;-89
2022/11/16 01:32:40;;;;;;;10.80;8.80;;;;;;;11.95;100.00;96850.69;5111947;23;20610;-89
2022/11/16 01:52:10;;;;;;;7.10;5.83;;;;;;;11.90;100.00;96835.44;5117260;23;20560;-88
2022/11/16 01:54:16;;;;;;;7.60;5.77;;;;;;;11.88;100.00;96837.38;5115234;23;20599;-89
2022/11/16 01:56:35;;;;;;;9.57;6.60;;;;;;;11.89;100.00;96833.81;5091181;23;20759;-88
2022/11/16 01:58:47;;;;;;;8.53;5.97;;;;;;;11.91;100.00;96831.84;5090901;23;20670;-88
2022/11/16 02:00:58;;;;;;;8.30;6.00;;;;;;;11.93;100.00;96821.28;5090430;23;20582;-88
2022/11/16 02:03:12;;;;;;;9.47;6.07;;;;;;;11.94;100.00;96825.53;5088994;23;20614;-88
2022/11/16 02:05:27;;;;;;;7.47;6.03;;;;;;;11.94;100.00;96821.13;5091048;23;20593;-88
2022/11/16 02:10:17;;;;;;;10.80;5.80;;;;;;;12.00;100.00;96815.31;5114057;23;20570;-88
2022/11/16 02:12:34;;;;;;;6.67;5.97;;;;;;;12.04;100.00;96813.22;5089536;23;20611;-88
2022/11/16 02:14:52;;;;;;;7.37;5.73;;;;;;;12.05;100.00;96812.28;5114434;23;20628;-88
2022/11/16 02:17:02;;;;;;;14.57;10.07;;;;;;;12.06;100.00;96806.91;5090372;23;21040;-88
2022/11/16 02:19:30;;;;;;;11.50;8.03;;;;;;;12.09;100.00;96813.63;5089625;23;20578;-88
2022/11/16 02:21:40;;;;;;;10.87;8.17;;;;;;;12.11;100.00;96804.66;5090806;23;21104;-88
2022/11/16 02:23:58;;;;;;;23.27;15.80;;;;;;;12.14;100.00;96804.38;5114538;23;20593;-88
2022/11/16 02:26:11;;;;;;;10.07;8.37;;;;;;;12.17;100.00;96809.31;5089781;23;20590;-89
2022/11/16 02:28:29;;;;;;;7.83;6.13;;;;;;;12.18;100.00;96808.34;5089786;23;20575;-88
2022/11/16 02:30:35;;;;;;;5.73;4.60;;;;;;;12.19;100.00;96814.41;5113172;23;20614;-88
2022/11/16 02:32:42;;;;;;;4.40;3.97;;;;;;;12.20;100.00;96811.63;5114280;23;20601;-88
2022/11/16 02:34:48;;;;;;;5.30;4.47;;;;;;;12.25;100.00;96814.63;5089980;23;20598;-88
2022/11/16 02:36:53;;;;;;;4.80;4.07;;;;;;;12.27;99.78;96810.09;5114913;23;20571;-88
2022/11/16 02:39:03;;;;;;;5.20;3.97;;;;;;;12.29;100.00;96803.72;5089880;23;20586;-88
2022/11/16 02:41:10;;;;;;;4.60;3.90;;;;;;;12.29;98.65;96800.31;5089371;23;21096;-88
2022/11/16 02:51:08;;;;;;;5.80;4.20;;;;;;;12.34;99.41;96808.53;5112468;23;20578;-88
2022/11/16 02:53:11;;;;;;;4.87;3.83;;;;;;;12.34;99.01;96803.28;5089875;23;20619;-88
2022/11/16 02:55:15;;;;;;;5.40;4.10;;;;;;;12.35;99.34;96812.78;5112276;23;20672;-88
2022/11/16 02:57:40;;;;;;;5.90;3.17;;;;;;;12.31;99.33;96808.81;5089419;23;20579;-88
2022/11/16 02:59:49;;;;;;;9.53;5.30;;;;;;;12.33;97.70;96810.31;5088036;23;20683;-88
2022/11/16 03:01:59;;;;;;;8.00;5.90;;;;;;;12.33;97.69;96817.34;5088663;23;20633;-88
2022/11/16 03:04:07;;;;;;;7.40;5.00;;;;;;;12.34;99.05;96809.38;5113709;23;20613;-88
2022/11/16 03:06:17;;;;;;;9.00;6.50;;;;;;;12.34;98.74;96808.53;5089806;23;20594;-88
2022/11/16 03:08:26;;;;;;;6.40;5.60;;;;;;;12.31;99.85;96827.97;5114168;23;20570;-88
2022/11/16 03:12:50;;;;;;;4.80;3.90;;;;;;;12.31;97.92;96824.50;5089267;23;20745;-88
2022/11/16 03:14:55;;;;;;;4.67;3.90;;;;;;;12.31;98.37;96820.13;5089683;23;21191;-88
2022/11/16 03:17:01;;;;;;;5.90;5.30;;;;;;;12.33;99.56;96814.75;5088682;23;20624;-88
2022/11/16 03:19:08;;;;;;;7.30;6.30;;;;;;;12.32;99.04;96820.94;5089289;23;20673;-88
2022/11/16 03:21:16;;;;;;;8.63;7.43;;;;;;;12.30;99.41;96822.88;5089059;23;20638;-88
2022/11/16 03:23:19;;;;;;;9.73;7.50;;;;;;;12.27;99.14;96817.94;5088796;23;20594;-88
2022/11/16 03:25:24;;;;;;;11.07;8.43;;;;;;;12.26;100.00;96822.31;5113711;23;20708;-88
2022/11/16 03:27:30;;;;;;;9.00;7.90;;;;;;;12.25;100.00;96814.63;5088723;23;20755;-88
2022/11/16 03:29:39;;;;;;;9.50;7.77;;;;;;;12.23;100.00;96816.56;5113004;23;20577;-88
2022/11/16 03:31:48;;;;;;;9.60;6.37;;;;;;;12.22;100.00;96809.69;5088258;23;20741;-88
2022/11/16 03:33:55;;;;;;;10.53;7.37;;;;;;;12.21;100.00;96805.44;5089427;23;20603;-88
2022/11/16 03:36:02;;;;;;;16.90;13.10;;;;;;;12.21;100.00;96817.69;5113691;23;20598;-89
2022/11/16 03:38:09;;;;;;;12.13;8.20;;;;;;;12.17;100.00;96811.94;5112521;23;20615;-88
2022/11/16 03:40:18;;;;;;;39.47;23.40;;;;;;;12.14;100.00;96809.59;5088116;23;20975;-88
2022/11/16 03:42:24;;;;;;;9.90;7.50;;;;;;;12.17;100.00;96805.91;5113422;23;20606;-88
2022/11/16 03:44:28;;;;;;;7.67;5.60;;;;;;;12.16;100.00;96812.06;5088651;23;20710;-89
2022/11/16 03:46:31;;;;;;;6.43;5.30;;;;;;;12.15;100.00;96813.03;5113303;23;20574;-89
2022/11/16 03:48:35;;;;;;;7.03;5.10;;;;;;;12.17;100.00;96809.31;5088768;23;20591;-89
2022/11/16 03:50:43;;;;;;;5.37;3.67;;;;;;;12.18;100.00;96810.13;5087630;23;20614;-89
2022/11/16 03:52:46;;;;;;;4.87;3.73;;;;;;;12.18;100.00;96810.97;5115345;23;21187;-88
2022/11/16 03:54:51;;;;;;;5.37;4.13;;;;;;;12.20;100.00;96806.41;5091110;23;20940;-89
2022/11/16 03:56:54;;;;;;;4.70;3.70;;;;;;;12.21;100.00;96797.63;5089915;23;20607;-89
2022/11/16 03:58:58;;;;;;;6.10;4.30;;;;;;;12.22;100.00;96801.84;5090269;23;21158;-88
2022/11/16 04:01:03;;;;;;;4.47;3.47;;;;;;;12.22;100.00;96801.84;5091868;23;20584;-88
2022/11/16 04:03:07;;;;;;;3.73;3.20;;;;;;;12.22;100.00;96798.44;5093365;23;20896;-88
2022/11/16 04:24:13;;;;;;;8.97;6.03;;;;;;;12.28;100.00;96814.34;5114366;23;20571;-88
2022/11/16 04:26:18;;;;;;;8.40;7.30;;;;;;;12.27;100.00;96823.16;5068081;23;20649;-88
2022/11/16 04:28:28;;;;;;;10.87;8.70;;;;;;;12.24;100.00;96824.28;5115621;23;20665;-88
2022/11/16 04:37:51;;;;;;;10.67;8.73;;;;;;;12.18;100.00;96825.81;5090292;23;21166;-89
2022/11/16 04:40:03;;;;;;;9.80;8.50;;;;;;;12.16;100.00;96827.75;5090812;23;20578;-88
2022/11/16 04:42:14;;;;;;;10.20;8.30;;;;;;;12.15;100.00;96823.50;5114797;23;20558;-89
2022/11/16 04:44:20;;;;;;;10.67;8.47;;;;;;;12.15;100.00;96828.72;5114696;23;20574;-89
2022/11/16 04:48:48;;;;;;;12.80;10.00;;;;;;;12.14;100.00;96838.34;5080473;23;21134;-88
2022/11/16 04:50:51;;;;;;;16.50;13.10;;;;;;;12.14;100.00;96843.59;5090160;23;20607;-89
2022/11/16 04:52:54;;;;;;;14.67;11.00;;;;;;;12.12;100.00;96837.69;5089984;23;20579;-88
2022/11/16 04:54:57;;;;;;;15.17;11.50;;;;;;;12.12;100.00;96845.53;5114021;23;20568;-88
2022/11/16 04:57:02;;;;;;;12.10;10.90;;;;;;;12.12;100.00;96845.53;5090674;23;20610;-87
2022/11/16 04:59:06;;;;;;;13.23;10.30;;;;;;;12.13;100.00;96831.47;5114948;23;20637;-88
2022/11/16 05:01:10;;;;;;;9.67;8.67;;;;;;;12.10;100.00;96831.75;5089036;23;20590;-88
2022/11/16 05:03:13;;;;;;;12.93;10.00;;;;;;;12.09;100.00;96827.53;5089424;23;20611;-88
2022/11/16 05:05:17;;;;;;;11.87;9.40;;;;;;;12.10;100.00;96831.75;5089780;23;20606;-88
2022/11/16 05:07:21;;;;;;;10.23;8.83;;;;;;;12.08;100.00;96830.28;5089497;23;20636;-88
2022/11/16 05:09:26;;;;;;;10.50;8.70;;;;;;;12.07;100.00;96831.25;5090260;23;20623;-88
2022/11/16 05:11:29;;;;;;;11.90;9.07;;;;;;;12.06;100.00;96837.44;5091176;23;20979;-88
2022/11/16 05:13:34;;;;;;;13.63;8.90;;;;;;;12.05;100.00;96844.44;5113885;23;20602;-88
2022/11/16 05:15:39;;;;;;;10.70;9.40;;;;;;;12.06;100.00;96840.88;5088289;23;20590;-88
2022/11/16 05:17:42;;;;;;;11.47;8.50;;;;;;;12.04;100.00;96841.97;5115615;23;21117;-88
2022/11/16 05:22:19;;;;;;;14.37;8.97;;;;;;;12.02;100.00;96847.34;5090420;23;20586;-89
2022/11/16 05:24:34;;;;;;;10.10;8.40;;;;;;;12.03;100.00;96846.38;5089332;23;20575;-88
2022/11/16 05:26:39;;;;;;;9.93;8.10;;;;;;;12.05;100.00;96836.59;5091788;23;20571;-88
2022/11/16 05:28:42;;;;;;;12.20;8.87;;;;;;;12.05;100.00;96833.19;5088899;23;20589;-88
2022/11/16 05:30:48;;;;;;;11.87;8.43;;;;;;;12.00;100.00;96827.56;5089799;23;21264;-88
2022/11/16 05:32:56;;;;;;;14.47;12.80;;;;;;;11.94;100.00;96830.75;5090557;23;20571;-88
2022/11/16 05:35:00;;;;;;;25.30;22.70;;;;;;;11.81;100.00;96823.22;5089417;23;20650;-89
2022/11/16 05:37:03;;;;;;;11.87;10.27;;;;;;;11.73;100.00;96824.94;5089452;23;20892;-89
2022/11/16 05:39:06;;;;;;;9.27;7.50;;;;;;;11.71;100.00;96815.56;5089804;23;20571;-88
2022/11/16 05:41:11;;;;;;;7.63;6.47;;;;;;;11.74;100.00;96833.56;5116674;23;20589;-89
2022/11/16 05:43:15;;;;;;;8.03;6.67;;;;;;;11.77;100.00;96834.09;5096229;23;20587;-87
2022/11/16 05:45:27;;;;;;;8.00;7.13;;;;;;;11.81;100.00;96848.53;5102590;23;20622;-87
2022/11/16 05:47:33;;;;;;;12.20;9.97;;;;;;;11.83;100.00;96846.59;5127454;23;20589;-87
2022/11/16 05:49:37;;;;;;;8.70;6.77;;;;;;;11.87;100.00;96838.31;5126465;23;20585;-87
2022/11/16 05:51:42;;;;;;;7.90;7.10;;;;;;;11.93;100.00;96852.63;5096393;23;20575;-87
2022/11/16 05:53:49;;;;;;;9.63;7.30;;;;;;;11.96;100.00;96854.94;5116463;23;20594;-86
2022/11/16 05:55:56;;;;;;;8.13;7.00;;;;;;;11.98;100.00;96845.16;5090258;23;20579;-87
2022/11/16 05:57:59;;;;;;;9.80;6.40;;;;;;;12.02;100.00;96854.38;5090072;23;20891;-87
2022/11/16 06:00:03;;;;;;;12.30;10.47;;;;;;;12.03;100.00;96856.03;5090663;23;20579;-88
2022/11/16 06:02:16;;;;;;;11.00;8.90;;;;;;;12.04;100.00;96857.66;5112515;23;20605;-90
2022/11/16 06:04:21;;;;;;;10.10;8.10;;;;;;;12.06;100.00;96859.16;5086727;23;20712;-89
2022/11/16 06:06:28;;;;;;;15.47;13.87;;;;;;;12.09;100.00;96844.97;5089129;23;20941;-86
2022/11/16 06:08:32;;;;;;;8.33;7.50;;;;;;;12.11;100.00;96848.28;5088495;23;20654;-86
2022/11/16 06:10:39;;;;;;;6.70;6.07;;;;;;;12.12;100.00;96845.53;5113497;23;20585;-86
2022/11/16 06:12:43;;;;;;;7.40;6.30;;;;;;;12.16;100.00;96846.88;5088846;23;20579;-86
2022/11/16 06:14:47;;;;;;;8.90;6.63;;;;;;;12.16;100.00;96846.88;5088874;23;20614;-85
2022/11/16 06:16:50;;;;;;;7.83;5.90;;;;;;;12.16;100.00;96849.47;5088071;23;20589;-85
2022/11/16 06:18:54;;;;;;;10.30;8.67;;;;;;;12.17;100.00;96845.91;5089449;23;20583;-86
2022/11/16 06:20:59;;;;;;;15.73;14.00;;;;;;;12.18;100.00;96852.78;5088285;23;21156;-86
2022/11/16 06:23:02;;;;;;;10.97;9.83;;;;;;;12.19;100.00;96851.81;5113762;23;20588;-86
2022/11/16 06:25:06;;;;;;;11.47;7.23;;;;;;;12.19;100.00;96851.00;5088557;23;20576;-86
2022/11/16 06:27:14;;;;;;;10.47;6.80;;;;;;;12.19;100.00;96851.00;5089510;23;20585;-85
2022/11/16 06:29:19;;;;;;;7.67;6.80;;;;;;;12.17;100.00;96856.38;5089217;23;20588;-86
2022/11/16 06:31:22;;;;;;;7.80;6.70;;;;;;;12.16;100.00;96852.09;5113825;23;20601;-87
2022/11/16 06:33:25;;;;;;;7.37;6.03;;;;;;;12.17;100.00;96860.78;5088695;23;21001;-87
2022/11/16 06:35:35;;;;;;;7.80;6.27;;;;;;;12.19;100.00;96861.44;5113881;23;20697;-86
2022/11/16 06:37:40;;;;;;;8.20;6.30;;;;;;;12.19;100.00;96861.44;5090162;23;20600;-86
2022/11/16 06:39:43;;;;;;;7.87;7.07;;;;;;;12.19;100.00;96858.84;5088906;23;20594;-86
2022/11/16 06:41:47;;;;;;;8.77;7.50;;;;;;;12.21;100.00;96860.34;5088526;23;20616;-86
2022/11/16 06:43:50;;;;;;;10.07;8.33;;;;;;;12.19;100.00;96870.09;5091415;23;20626;-86
2022/11/16 06:45:58;;;;;;;9.60;7.40;;;;;;;12.21;100.00;96870.81;5117775;23;21163;-86
2022/11/16 06:48:04;;;;;;;6.70;4.97;;;;;;;12.20;100.00;96877.00;5068579;23;21089;-86
2022/11/16 06:50:08;;;;;;;6.13;5.53;;;;;;;12.22;100.00;96874.22;5113386;23;21151;-85
2022/11/16 06:52:13;;;;;;;8.47;5.80;;;;;;;12.22;100.00;96872.44;5093004;23;20575;-86
2022/11/16 06:54:22;;;;;;;9.00;7.40;;;;;;;12.22;100.00;96885.50;5117545;23;20630;-86
2022/11/16 06:56:28;;;;;;;8.10;7.30;;;;;;;12.20;100.00;96879.59;5091429;23;20564;-86
2022/11/16 06:58:34;;;;;;;9.20;7.70;;;;;;;12.21;100.00;96883.88;5093715;23;21146;-86
2022/11/16 07:00:39;;;;;;;9.03;6.93;;;;;;;12.21;100.00;96881.25;5117964;23;21353;-86
2022/11/16 07:02:45;;;;;;;8.70;7.17;;;;;;;12.20;100.00;96879.59;5118465;23;20585;-86
2022/11/16 07:04:52;;;;;;;8.50;6.83;;;;;;;12.20;100.00;96886.63;5115758;23;20637;-87
2022/11/16 07:06:55;;;;;;;8.77;6.90;;;;;;;12.18;100.00;96888.53;5092186;23;20586;-86
2022/11/16 07:09:02;;;;;;;11.23;9.17;;;;;;;12.18;100.00;96892.00;5090886;23;20576;-86
2022/11/16 07:11:13;;;;;;;13.03;10.87;;;;;;;12.18;100.00;96894.63;5092428;23;20656;-85
2022/11/16 07:13:18;;;;;;;10.67;8.83;;;;;;;12.17;100.00;96900.78;5091756;23;21094;-86
2022/11/16 07:15:22;;;;;;;15.90;13.53;;;;;;;12.17;100.00;96900.78;5115464;23;20591;-86
2022/11/16 07:17:28;;;;;;;13.23;9.57;;;;;;;12.17;100.00;96906.03;5095498;23;20892;-88
2022/11/16 07:19:35;;;;;;;9.80;8.63;;;;;;;12.13;100.00;96915.09;5122300;23;20603;-87
2022/11/16 07:21:39;;;;;;;9.87;8.30;;;;;;;12.14;100.00;96911.53;5115982;23;20588;-87
2022/11/16 07:23:49;;;;;;;11.10;9.90;;;;;;;12.17;100.00;96913.88;5092069;23;20709;-85
2022/11/16 07:25:55;;;;;;;10.37;9.23;;;;;;;12.20;100.00;96905.75;5114868;23;20160;-85
2022/11/16 07:28:09;;;;;;;11.60;9.90;;;;;;;12.23;100.00;96920.31;5113203;23;20592;-86
2022/11/16 07:30:14;;;;;;;10.83;9.73;;;;;;;12.23;100.00;96926.38;5089221;23;20605;-86
2022/11/16 07:32:41;;;;;;;15.40;11.33;;;;;;;12.23;100.00;96932.41;5114883;23;20601;-85
2022/11/16 07:35:07;;;;;;;14.37;12.30;;;;;;;12.23;100.00;96933.41;5113643;23;21381;-85
2022/11/16 07:37:15;;;;;;;11.43;9.63;;;;;;;12.23;100.00;96946.47;5114275;23;20578;-85
2022/11/16 07:39:21;;;;;;;12.87;10.33;;;;;;;12.22;100.00;96932.56;5113299;23;20570;-85
2022/11/16 07:41:25;;;;;;;16.03;13.23;;;;;;;12.22;100.00;96936.97;5115802;23;20578;-86
2022/11/16 07:43:50;;;;;;;13.50;10.97;;;;;;;12.26;100.00;96947.00;5117768;23;20546;-86
2022/11/16 07:46:02;;;;;;;11.83;10.37;;;;;;;12.29;100.00;96947.53;5114915;23;21177;-85
2022/11/16 07:48:25;;;;;;;11.97;10.00;;;;;;;12.34;100.00;96952.31;5114142;23;20559;-86
2022/11/16 07:51:00;;;;;;;14.40;10.77;;;;;;;12.41;100.00;96948.19;5080389;23;20587;-85
2022/11/16 07:53:08;;;;;;;12.07;10.60;;;;;;;12.46;100.00;96953.78;5114104;23;20577;-85
2022/11/16 07:55:15;;;;;;;13.83;11.73;;;;;;;12.52;100.00;96953.22;5089879;23;20587;-84
2022/11/16 07:57:20;;;;;;;16.97;11.67;;;;;;;12.56;100.00;96951.97;5089043;23;20568;-86
2022/11/16 07:59:27;;;;;;;13.80;11.93;;;;;;;12.59;100.00;96956.91;5088589;23;20663;-84
2022/11/16 08:01:31;;;;;;;18.27;12.53;;;;;;;12.63;100.00;96955.63;5088461;23;20685;-84
2022/11/16 08:03:35;;;;;;;28.20;24.90;;;;;;;12.65;100.00;96949.31;5087720;23;20613;-85
2022/11/16 08:05:42;;;;;;;21.00;18.80;;;;;;;12.68;100.00;96952.44;5090243;23;20599;-85
2022/11/16 08:07:45;;;;;;;16.23;13.53;;;;;;;12.73;100.00;96960.69;5090399;23;20627;-84
2022/11/16 08:09:49;;;;;;;15.23;12.53;;;;;;;12.76;100.00;96957.78;5138933;23;20577;-85
2022/11/16 08:11:53;;;;;;;14.03;11.83;;;;;;;12.79;100.00;96960.13;5085221;23;20681;-85
2022/11/16 08:13:58;;;;;;;13.53;10.60;;;;;;;12.83;100.00;96953.63;5087742;23;20581;-86
2022/11/16 08:16:08;;;;;;;12.40;10.43;;;;;;;12.86;100.00;96958.56;5085883;23;20613;-86
2022/11/16 08:18:12;;;;;;;11.93;10.73;;;;;;;12.89;100.00;96963.53;5090194;23;20642;-85
2022/11/16 08:20:16;;;;;;;10.43;9.33;;;;;;;12.91;100.00;96966.00;5090971;23;20584;-85
2022/11/16 08:22:20;;;;;;;10.53;7.93;;;;;;;12.95;100.00;96965.56;5090840;23;20877;-85
2022/11/16 08:24:24;;;;;;;9.73;8.33;;;;;;;12.97;100.00;96963.59;5088300;23;20580;-85
2022/11/16 08:26:27;;;;;;;12.50;8.33;;;;;;;12.99;100.00;96968.69;5089766;23;20576;-86
2022/11/16 08:28:40;;;;;;;9.83;8.00;;;;;;;12.99;100.00;96963.47;5089727;23;20588;-86
2022/11/16 08:30:45;;;;;;;13.03;9.60;;;;;;;12.99;100.00;96968.69;5114623;23;20591;-86
2022/11/16 08:33:01;;;;;;;12.90;10.57;;;;;;;12.99;100.00;96969.53;5087990;23;20587;-87
2022/11/16 08:35:08;;;;;;;13.40;10.33;;;;;;;12.99;100.00;96972.16;5114279;23;20571;-85
2022/11/16 08:37:12;;;;;;;12.27;9.07;;;;;;;12.99;100.00;96971.31;5089382;23;20630;-86
2022/11/16 08:39:20;;;;;;;9.00;6.77;;;;;;;13.00;100.00;96976.41;5091600;23;20687;-84
2022/11/16 08:41:28;;;;;;;7.03;6.00;;;;;;;13.03;100.00;96976.09;5091875;23;20700;-86
2022/11/16 08:43:32;;;;;;;7.00;6.30;;;;;;;13.06;100.00;96975.00;5116730;23;20582;-86
2022/11/16 08:45:38;;;;;;;9.03;7.03;;;;;;;13.11;100.00;96986.69;5116494;23;20570;-86
2022/11/16 08:47:43;;;;;;;6.17;5.03;;;;;;;13.18;100.00;96990.34;5092204;23;20635;-86
2022/11/16 08:49:48;;;;;;;7.60;5.80;;;;;;;13.18;100.00;96985.94;5092276;23;21127;-86
2022/11/16 08:51:56;;;;;;;7.27;6.10;;;;;;;13.23;100.00;96985.50;5090848;23;20621;-84
2022/11/16 08:54:00;;;;;;;6.80;5.90;;;;;;;13.31;100.00;96990.81;5091745;23;20635;-85
2022/11/16 08:56:06;;;;;;;8.10;7.30;;;;;;;13.37;100.00;96998.91;5092298;23;20673;-85
2022/11/16 08:58:12;;;;;;;9.47;7.83;;;;;;;13.40;100.00;96985.50;5115412;23;20653;-85
2022/11/16 09:00:18;;;;;;;9.90;8.63;;;;;;;13.45;100.00;96987.69;5091064;23;21103;-84
2022/11/16 09:02:24;;;;;;;9.97;6.57;;;;;;;13.49;100.00;96989.03;5093970;23;20560;-87
2022/11/16 09:04:28;;;;;;;9.10;7.17;;;;;;;13.56;100.00;96990.91;5118504;23;21197;-86
2022/11/16 09:06:42;;;;;;;8.97;7.17;;;;;;;13.64;100.00;96998.03;5115997;23;20578;-86
2022/11/16 09:08:46;;;;;;;10.30;6.70;;;;;;;13.67;100.00;97003.78;5115667;23;20924;-86
2022/11/16 09:10:51;;;;;;;8.00;7.17;;;;;;;13.68;100.00;97001.00;5114641;23;20585;-86
2022/11/16 09:12:54;;;;;;;9.27;7.20;;;;;;;13.67;100.00;96996.75;5116894;23;20579;-86
2022/11/16 09:14:57;;;;;;;8.17;6.37;;;;;;;13.68;100.00;96994.94;5093410;23;20578;-86
2022/11/16 09:17:02;;;;;;;9.27;7.30;;;;;;;13.72;100.00;97010.19;5093158;23;20634;-87
2022/11/16 09:19:06;;;;;;;8.13;7.30;;;;;;;13.77;100.00;97004.50;5095234;23;20590;-87
2022/11/16 09:21:11;;;;;;;7.87;6.80;;;;;;;13.80;100.00;97005.06;5069429;23;20698;-88
2022/11/16 09:23:16;;;;;;;11.70;6.97;;;;;;;13.85;100.00;97007.22;5095496;23;20582;-87
2022/11/16 09:25:28;;;;;;;7.60;6.23;;;;;;;13.90;100.00;97012.84;5094896;23;20566;-87
2022/11/16 09:27:33;;;;;;;8.43;5.13;;;;;;;13.95;100.00;97006.16;5144838;23;20590;-86
2022/11/16 09:29:36;;;;;;;6.00;4.50;;;;;;;13.95;100.00;97006.16;5094587;23;20593;-87
2022/11/16 09:31:39;;;;;;;8.13;5.33;;;;;;;14.01;100.00;97008.19;5114892;23;20587;-87
2022/11/16 09:33:45;;;;;;;7.10;5.30;;;;;;;14.03;99.81;97011.47;5088415;23;20650;-87
2022/11/16 09:35:49;;;;;;;6.07;5.47;;;;;;;14.04;100.00;97012.28;5090365;23;20615;-87
2022/11/16 09:37:52;;;;;;;6.83;5.60;;;;;;;14.07;100.00;97009.38;5114199;23;20575;-86
2022/11/16 09:39:57;;;;;;;11.00;6.77;;;;;;;14.11;98.42;97016.00;5088010;23;20627;-87
2022/11/16 09:42:07;;;;;;;7.67;6.07;;;;;;;14.18;99.25;97012.59;5114060;23;20572;-87
2022/11/16 09:44:20;;;;;;;8.30;5.83;;;;;;;14.11;97.14;97011.56;5089306;23;21154;-87
2022/11/16 09:46:27;;;;;;;9.93;6.10;;;;;;;14.14;98.21;97011.25;5114679;23;20583;-87
2022/11/16 09:48:32;;;;;;;7.80;7.00;;;;;;;14.27;97.93;97006.44;5112953;23;20564;-87
2022/11/16 09:50:41;;;;;;;6.30;4.77;;;;;;;14.36;97.73;97013.38;5113827;23;20574;-88
2022/11/16 09:52:46;;;;;;;6.33;4.30;;;;;;;14.49;96.90;97011.16;5112097;23;20580;-87
2022/11/16 09:54:49;;;;;;;6.93;4.70;;;;;;;14.68;96.92;97004.72;5113444;23;21140;-87
2022/11/16 09:56:58;;;;;;;8.37;6.10;;;;;;;14.72;95.25;97000.81;5088607;23;21019;-88
2022/11/16 09:59:04;;;;;;;8.90;5.10;;;;;;;14.74;95.32;96998.84;5088810;23;20587;-88
2022/11/16 10:01:19;;;;;;;4.97;4.13;;;;;;;14.82;94.13;96998.88;5113899;23;20581;-88
2022/11/16 10:03:25;;;;;;;5.17;4.10;;;;;;;14.87;93.85;97003.66;5113413;23;20638;-88
2022/11/16 10:05:32;;;;;;;6.73;4.20;;;;;;;15.00;94.01;97001.41;5088993;23;20573;-88
2022/11/16 10:07:40;;;;;;;5.70;3.37;;;;;;;15.25;96.03;97014.50;5113978;23;20892;-89
2022/11/16 10:09:43;;;;;;;4.20;2.00;;;;;;;15.35;94.67;97005.50;5113596;23;20577;-88
2022/11/16 10:12:01;;;;;;;9.77;2.40;;;;;;;15.47;93.19;97016.53;5115242;23;20580;-89
2022/11/16 10:14:27;;;;;;;3.60;1.87;;;;;;;15.28;93.42;97006.31;5089562;23;21086;-88
2022/11/16 10:16:35;;;;;;;4.57;2.03;;;;;;;15.50;92.74;97008.31;5110659;23;20707;-88
2022/11/16 10:18:48;;;;;;;4.10;1.90;;;;;;;15.54;93.24;97004.41;5114418;23;20587;-88
2022/11/16 10:21:09;;;;;;;4.90;2.20;;;;;;;15.19;90.54;96997.56;5089857;23;20673;-88
2022/11/16 10:23:16;;;;;;;3.93;2.17;;;;;;;15.17;90.75;96994.28;5114410;23;20566;-88
2022/11/16 10:25:21;;;;;;;3.20;1.73;;;;;;;15.11;91.09;96994.91;5089509;23;20573;-88
2022/11/16 10:27:37;;;;;;;5.00;1.83;;;;;;;15.04;93.12;96990.44;5114078;23;20584;-86
2022/11/16 10:29:48;;;;;;;8.03;3.33;;;;;;;14.91;90.45;96989.22;5112311;23;20618;-85
2022/11/16 10:32:01;;;;;;;6.10;3.23;;;;;;;14.83;92.66;96981.31;5113032;23;20623;-85
2022/11/16 10:34:06;;;;;;;5.40;2.20;;;;;;;14.76;92.14;96980.31;5088054;23;20639;-86
2022/11/16 10:36:13;;;;;;;4.47;2.27;;;;;;;14.67;92.07;96971.59;5088989;23;20594;-85
2022/11/16 10:38:17;;;;;;;7.97;2.87;;;;;;;14.60;91.92;96972.38;5113411;23;20604;-86
2022/11/16 10:40:23;;;;;;;5.00;2.03;;;;;;;14.48;92.37;96973.63;5113535;23;20589;-86
2022/11/16 10:42:33;;;;;;;4.00;2.40;;;;;;;14.36;91.96;96972.22;5115518;23;21080;-86
2022/11/16 10:44:40;;;;;;;4.50;1.90;;;;;;;14.34;93.71;96968.94;5113160;23;20644;-86
2022/11/16 10:46:46;;;;;;;4.47;2.20;;;;;;;14.36;92.98;96971.41;5088323;23;20590;-86
2022/11/16 10:48:56;;;;;;;3.17;2.00;;;;;;;14.38;92.78;96969.44;5114754;23;20584;-85
2022/11/16 10:50:59;;;;;;;3.20;2.10;;;;;;;14.40;93.52;96970.09;5089082;23;20973;-86